createdAt,value
2023-05-15T00:01:54.665Z,93.30
2023-05-15T00:04:23.741Z,93.20
2023-05-15T00:06:53.273Z,93.50
2023-05-15T00:09:22.316Z,93.30
2023-05-15T00:11:52.405Z,93.20
2023-05-15T00:14:21.414Z,93.30
2023-05-15T00:16:59.350Z,93.20
2023-05-15T00:19:28.699Z,93.30
2023-05-15T00:21:57.792Z,93.00
2023-05-15T00:24:26.949Z,93.00
2023-05-15T00:26:56.055Z,92.90
2023-05-15T00:29:25.366Z,92.90
2023-05-15T00:31:54.666Z,92.80
2023-05-15T00:34:24.212Z,92.90
2023-05-15T00:36:53.369Z,92.90
2023-05-15T00:39:22.541Z,92.90
2023-05-15T00:41:53.167Z,92.80
2023-05-15T00:44:23.224Z,92.80
2023-05-15T00:46:53.436Z,92.70
2023-05-15T00:49:25.245Z,92.50
2023-05-15T00:51:54.846Z,92.60
2023-05-15T00:54:23.942Z,92.50
2023-05-15T00:56:53.036Z,92.40
2023-05-15T00:59:24.264Z,92.20
2023-05-15T01:01:53.416Z,92.10
2023-05-15T01:04:24.066Z,91.90
2023-05-15T01:06:56.489Z,91.90
2023-05-15T01:09:31.668Z,91.90
2023-05-15T01:12:02.229Z,91.60
2023-05-15T01:14:31.306Z,91.60
2023-05-15T01:17:00.424Z,91.60
2023-05-15T01:19:29.942Z,91.60
2023-05-15T01:22:29.584Z,91.50
2023-05-15T01:25:15.747Z,91.40
2023-05-15T01:27:56.200Z,91.30
2023-05-15T01:30:40.208Z,91.10
2023-05-15T01:33:16.937Z,91.00
2023-05-15T01:36:13.652Z,90.90
2023-05-15T01:38:57.108Z,90.70
2023-05-15T01:41:47.282Z,90.70
2023-05-15T01:44:19.430Z,90.20
2023-05-15T01:46:53.792Z,90.20
2023-05-15T01:49:26.249Z,90.30
2023-05-15T01:52:03.293Z,90.30
2023-05-15T01:54:34.414Z,90.10
2023-05-15T01:57:04.457Z,90.00
2023-05-15T01:59:34.746Z,89.90
2023-05-15T02:02:06.349Z,89.70
2023-05-15T02:04:36.495Z,89.40
2023-05-15T02:07:07.319Z,89.20
2023-05-15T02:09:37.279Z,88.80
2023-05-15T02:12:07.588Z,88.60
2023-05-15T02:14:38.443Z,88.50
2023-05-15T02:17:07.852Z,88.60
2023-05-15T02:19:37.028Z,88.30
2023-05-15T02:22:06.303Z,88.40
2023-05-15T02:24:35.375Z,88.60
2023-05-15T02:27:08.516Z,87.60
2023-05-15T02:30:02.250Z,87.90
2023-05-15T02:32:48.471Z,86.90
2023-05-15T02:35:35.871Z,86.40
2023-05-15T02:38:13.521Z,85.90
2023-05-15T02:40:43.415Z,86.30
2023-05-15T02:43:13.143Z,85.50
2023-05-15T02:45:42.530Z,85.10
2023-05-15T02:48:12.115Z,85.50
2023-05-15T02:50:41.670Z,84.60
2023-05-15T02:53:11.360Z,84.90
2023-05-15T02:55:40.513Z,85.50
2023-05-15T02:58:09.848Z,85.50
2023-05-15T03:00:38.913Z,85.00
2023-05-15T03:03:07.951Z,85.10
2023-05-15T03:05:37.046Z,84.30
2023-05-15T03:08:07.201Z,84.30
2023-05-15T03:10:36.475Z,84.10
2023-05-15T03:13:05.831Z,84.00
2023-05-15T03:15:34.915Z,83.10
2023-05-15T03:18:04.075Z,83.70
2023-05-15T03:20:33.218Z,83.70
2023-05-15T03:23:02.223Z,83.70
2023-05-15T03:25:31.454Z,82.70
2023-05-15T03:28:00.757Z,82.50
2023-05-15T03:30:30.052Z,82.90
2023-05-15T03:32:59.238Z,82.80
2023-05-15T03:35:31.585Z,82.60
2023-05-15T03:38:00.754Z,82.40
2023-05-15T03:40:29.920Z,81.80
2023-05-15T03:42:59.698Z,81.40
2023-05-15T03:45:30.316Z,81.40
2023-05-15T03:47:59.440Z,81.40
2023-05-15T03:50:29.837Z,80.40
2023-05-15T03:52:58.939Z,80.40
2023-05-15T03:55:28.186Z,80.40
2023-05-15T03:58:00.293Z,80.40
2023-05-15T04:00:29.372Z,81.00
2023-05-15T04:02:59.033Z,80.60
2023-05-15T04:05:28.562Z,78.80
2023-05-15T04:07:57.939Z,79.00
2023-05-15T04:10:27.107Z,79.20
2023-05-15T04:12:56.517Z,78.90
2023-05-15T04:15:28.220Z,78.80
2023-05-15T04:17:57.548Z,79.00
2023-05-15T04:20:27.347Z,79.30
2023-05-15T04:22:56.687Z,77.60
2023-05-15T04:25:26.674Z,78.60
2023-05-15T04:27:56.201Z,77.90
2023-05-15T04:30:31.988Z,78.80
2023-05-15T04:33:04.519Z,77.60
2023-05-15T04:35:34.659Z,75.60
2023-05-15T04:38:03.786Z,76.50
2023-05-15T04:40:33.079Z,76.40
2023-05-15T04:43:02.588Z,77.10
2023-05-15T04:45:31.669Z,77.40
2023-05-15T04:48:00.850Z,77.00
2023-05-15T04:50:30.780Z,75.60
2023-05-15T04:52:59.834Z,75.50
2023-05-15T04:55:28.849Z,75.10
2023-05-15T04:57:57.930Z,74.70
2023-05-15T05:00:32.071Z,74.90
2023-05-15T05:03:01.447Z,75.10
2023-05-15T05:05:32.264Z,74.40
2023-05-15T05:08:01.425Z,74.90
2023-05-15T05:10:30.629Z,75.00
2023-05-15T05:12:59.675Z,72.30
2023-05-15T05:15:28.752Z,73.60
2023-05-15T05:17:57.866Z,72.40
2023-05-15T05:20:27.190Z,73.90
2023-05-15T05:22:56.939Z,74.00
2023-05-15T05:25:27.182Z,74.50
2023-05-15T05:27:56.292Z,72.50
2023-05-15T05:30:25.385Z,73.50
2023-05-15T05:32:54.662Z,72.80
2023-05-15T05:35:24.129Z,72.60
2023-05-15T05:37:53.440Z,73.00
2023-05-15T05:40:22.799Z,72.30
2023-05-15T05:42:52.680Z,73.50
2023-05-15T05:45:25.759Z,72.60
2023-05-15T05:47:55.046Z,72.60
2023-05-15T05:50:32.024Z,71.80
2023-05-15T05:53:01.661Z,72.50
2023-05-15T05:55:30.707Z,71.70
2023-05-15T06:00:30.421Z,70.50
2023-05-15T06:03:01.081Z,70.60
2023-05-15T06:05:30.955Z,71.30
2023-05-15T06:08:02.236Z,70.90
2023-05-15T06:10:33.185Z,67.70
2023-05-15T06:13:05.777Z,68.60
2023-05-15T06:15:35.169Z,69.80
2023-05-15T06:18:04.644Z,68.00
2023-05-15T06:20:33.918Z,70.10
2023-05-15T06:23:03.514Z,68.90
2023-05-15T06:25:33.208Z,70.00
2023-05-15T06:28:02.415Z,70.60
2023-05-15T06:30:31.544Z,69.30
2023-05-15T06:33:00.817Z,68.80
2023-05-15T06:35:31.410Z,69.00
2023-05-15T06:38:00.445Z,68.70
2023-05-15T06:40:29.752Z,68.10
2023-05-15T06:42:59.976Z,68.00
2023-05-15T06:45:29.440Z,69.10
2023-05-15T06:48:01.455Z,67.70
2023-05-15T06:50:33.863Z,68.00
2023-05-15T06:53:03.174Z,64.90
2023-05-15T06:55:34.572Z,67.00
2023-05-15T06:58:03.929Z,66.90
2023-05-15T07:00:32.955Z,65.70
2023-05-15T07:03:01.976Z,67.60
2023-05-15T07:05:31.110Z,67.40
2023-05-15T07:08:00.172Z,66.20
2023-05-15T07:10:29.679Z,65.40
2023-05-15T07:13:04.033Z,67.50
2023-05-15T07:15:33.322Z,65.80
2023-05-15T07:18:02.558Z,67.40
2023-05-15T07:20:33.501Z,67.00
2023-05-15T07:23:05.133Z,67.10
2023-05-15T07:25:34.478Z,66.10
2023-05-15T07:28:03.538Z,66.70
2023-05-15T07:30:33.321Z,66.40
2023-05-15T07:33:03.018Z,67.00
2023-05-15T07:35:35.687Z,66.00
2023-05-15T07:38:10.154Z,66.50
2023-05-15T07:40:39.996Z,65.70
2023-05-15T07:43:09.471Z,65.00
2023-05-15T07:45:40.680Z,65.90
2023-05-15T07:48:20.657Z,65.60
2023-05-15T07:50:52.185Z,62.70
2023-05-15T07:53:22.940Z,64.60
2023-05-15T07:56:01.982Z,65.70
2023-05-15T07:58:31.121Z,65.40
2023-05-15T08:01:02.596Z,64.70
2023-05-15T08:03:32.958Z,65.40
2023-05-15T08:06:03.630Z,64.30
2023-05-15T08:08:33.486Z,63.60
2023-05-15T08:11:02.777Z,63.90
2023-05-15T08:13:32.128Z,64.80
2023-05-15T08:16:08.759Z,64.40
2023-05-15T08:18:37.977Z,64.30
2023-05-15T08:21:07.100Z,64.30
2023-05-15T08:23:40.260Z,64.50
2023-05-15T08:26:11.270Z,64.70
2023-05-15T08:28:42.315Z,62.90
2023-05-15T08:31:12.067Z,63.90
2023-05-15T08:33:41.197Z,63.60
2023-05-15T08:36:13.163Z,64.00
2023-05-15T08:38:42.247Z,63.60
2023-05-15T08:41:38.789Z,64.40
2023-05-15T08:44:12.395Z,64.60
2023-05-15T08:46:42.321Z,64.10
2023-05-15T08:49:47.455Z,64.50
2023-05-15T08:52:33.702Z,60.40
2023-05-15T08:55:03.390Z,63.10
2023-05-15T08:57:36.190Z,64.00
2023-05-15T09:00:17.803Z,64.40
2023-05-15T09:02:46.870Z,63.50
2023-05-15T09:05:15.966Z,64.10
2023-05-15T09:07:46.236Z,64.20
2023-05-15T09:10:16.402Z,64.30
2023-05-15T09:12:46.756Z,64.70
2023-05-15T09:15:24.586Z,62.60
2023-05-15T09:17:54.647Z,63.00
2023-05-15T09:20:31.966Z,63.90
2023-05-15T09:23:03.608Z,64.10
2023-05-15T09:26:07.754Z,64.80
2023-05-15T09:28:36.348Z,63.70
2023-05-15T09:31:06.975Z,59.80
2023-05-15T09:33:39.150Z,64.00
2023-05-15T09:36:10.285Z,63.80
2023-05-15T09:38:43.974Z,63.90
2023-05-15T09:41:13.062Z,63.30
2023-05-15T09:43:42.838Z,64.20
2023-05-15T09:46:14.154Z,63.80
2023-05-15T09:48:43.312Z,63.70
2023-05-15T09:51:20.638Z,63.70
2023-05-15T09:53:54.531Z,63.00
2023-05-15T09:56:23.702Z,63.70
2023-05-15T09:59:00.580Z,63.30
2023-05-15T10:01:29.800Z,63.30
2023-05-15T10:04:08.828Z,63.30
2023-05-15T10:06:40.652Z,62.80
2023-05-15T10:09:12.283Z,63.30
2023-05-15T10:11:44.641Z,63.00
2023-05-15T10:14:15.742Z,63.10
2023-05-15T10:16:45.335Z,63.20
2023-05-15T10:19:15.822Z,62.80
2023-05-15T10:21:45.754Z,62.70
2023-05-15T10:24:15.876Z,63.00
2023-05-15T10:26:45.834Z,62.70
2023-05-15T10:29:18.297Z,63.00
2023-05-15T10:31:50.277Z,63.20
2023-05-15T10:34:20.302Z,62.60
2023-05-15T10:36:52.299Z,63.00
2023-05-15T10:39:22.226Z,62.40
2023-05-15T10:41:52.737Z,62.80
2023-05-15T10:44:23.384Z,63.20
2023-05-15T10:46:52.937Z,63.00
2023-05-15T10:49:22.036Z,63.30
2023-05-15T10:51:51.639Z,63.40
2023-05-15T10:54:20.831Z,63.20
2023-05-15T10:56:52.127Z,63.40
2023-05-15T10:59:21.579Z,63.50
2023-05-15T11:01:50.598Z,63.60
2023-05-15T11:04:20.833Z,63.90
2023-05-15T11:06:52.025Z,63.60
2023-05-15T11:09:24.762Z,63.80
2023-05-15T11:12:02.399Z,63.90
2023-05-15T11:14:42.645Z,64.00
2023-05-15T11:17:18.808Z,64.00
2023-05-15T11:19:53.841Z,64.00
2023-05-15T11:22:42.565Z,63.90
2023-05-15T11:25:17.181Z,64.40
2023-05-15T11:27:47.540Z,64.50
2023-05-15T11:30:26.151Z,64.60
2023-05-15T11:33:03.027Z,64.60
2023-05-15T11:35:43.344Z,64.60
2023-05-15T11:38:12.369Z,64.70
2023-05-15T11:40:57.021Z,65.10
2023-05-15T11:43:33.742Z,64.80
2023-05-15T11:46:05.533Z,65.30
2023-05-15T11:48:36.863Z,65.40
2023-05-15T11:51:07.336Z,65.50
2023-05-15T11:53:36.977Z,65.60
2023-05-15T11:56:06.182Z,65.80
2023-05-15T11:58:35.409Z,65.90
2023-05-15T12:01:04.416Z,65.90
2023-05-15T12:03:39.362Z,66.00
2023-05-15T12:06:08.900Z,66.10
2023-05-15T12:08:39.775Z,66.20
2023-05-15T12:11:09.274Z,66.30
2023-05-15T12:13:38.372Z,66.40
2023-05-15T12:16:07.817Z,66.60
2023-05-15T12:18:36.976Z,66.70
2023-05-15T12:21:07.227Z,66.90
2023-05-15T12:23:36.247Z,67.00
2023-05-15T12:26:07.988Z,67.10
2023-05-15T12:28:37.548Z,67.20
2023-05-15T12:31:06.971Z,67.40
2023-05-15T12:33:36.182Z,67.40
2023-05-15T12:36:05.421Z,67.50
2023-05-15T12:38:36.156Z,67.70
2023-05-15T12:41:05.400Z,67.70
2023-05-15T12:43:35.180Z,67.80
2023-05-15T12:46:04.305Z,67.90
2023-05-15T12:48:34.156Z,68.10
2023-05-15T12:51:10.105Z,68.20
2023-05-15T12:53:40.653Z,68.20
2023-05-15T12:56:18.324Z,68.30
2023-05-15T12:58:49.286Z,68.40
2023-05-15T13:01:18.974Z,68.30
2023-05-15T13:03:49.376Z,68.40
2023-05-15T13:06:19.176Z,68.60
2023-05-15T13:08:49.128Z,68.60
2023-05-15T13:11:19.477Z,68.80
2023-05-15T13:13:52.120Z,68.90
2023-05-15T13:16:30.559Z,68.90
2023-05-15T13:19:00.503Z,68.90
2023-05-15T13:21:30.993Z,69.00
2023-05-15T13:24:00.047Z,69.10
2023-05-15T13:26:29.257Z,69.10
2023-05-15T13:28:58.244Z,69.30
2023-05-15T13:31:27.835Z,69.30
2023-05-15T13:33:57.020Z,69.50
2023-05-15T13:36:26.046Z,69.60
2023-05-15T13:38:55.054Z,69.70
2023-05-15T13:41:24.246Z,69.80
2023-05-15T13:43:53.197Z,69.80
2023-05-15T13:46:22.254Z,70.00
2023-05-15T13:48:51.303Z,70.10
2023-05-15T13:51:20.404Z,70.20
2023-05-15T13:53:49.603Z,70.40
2023-05-15T13:56:18.691Z,70.40
2023-05-15T13:58:47.711Z,70.60
2023-05-15T14:01:16.800Z,70.80
2023-05-15T14:03:46.554Z,70.90
2023-05-15T14:06:15.762Z,71.10
2023-05-15T14:08:44.861Z,71.10
2023-05-15T14:11:13.915Z,71.20
2023-05-15T14:13:43.595Z,71.30
2023-05-15T14:16:12.615Z,71.40
2023-05-15T14:18:42.089Z,71.40
2023-05-15T14:21:11.232Z,71.60
2023-05-15T14:23:40.283Z,71.50
2023-05-15T14:26:09.236Z,71.50
2023-05-15T14:28:38.241Z,71.60
2023-05-15T14:31:07.213Z,71.70
2023-05-15T14:33:36.204Z,71.70
2023-05-15T14:36:05.866Z,71.60
2023-05-15T14:38:35.198Z,71.60
2023-05-15T14:41:04.229Z,71.60
2023-05-15T14:43:33.344Z,71.60
2023-05-15T14:46:02.647Z,71.60
2023-05-15T14:48:31.735Z,71.60
2023-05-15T14:51:01.875Z,71.60
2023-05-15T14:53:30.891Z,71.60
2023-05-15T14:56:00.199Z,71.60
2023-05-15T14:58:29.357Z,71.60
2023-05-15T15:00:58.856Z,71.80
2023-05-15T15:03:29.049Z,71.90
2023-05-15T15:05:59.481Z,71.90
2023-05-15T15:08:28.508Z,72.00
2023-05-15T15:10:57.517Z,72.10
2023-05-15T15:13:28.379Z,72.10
2023-05-15T15:15:57.916Z,73.00
2023-05-15T15:18:27.517Z,72.30
2023-05-15T15:20:56.513Z,72.40
2023-05-15T15:23:25.531Z,72.50
2023-05-15T15:25:54.585Z,72.60
2023-05-15T15:28:23.812Z,72.70
2023-05-15T15:30:52.837Z,72.70
2023-05-15T15:33:21.842Z,72.90
2023-05-15T15:35:50.833Z,72.90
2023-05-15T15:38:19.933Z,73.00
2023-05-15T15:40:48.979Z,73.00
2023-05-15T15:43:18.238Z,73.10
2023-05-15T15:45:47.333Z,73.30
2023-05-15T15:48:16.471Z,73.40
2023-05-15T15:50:45.779Z,73.50
2023-05-15T15:53:15.052Z,73.50
2023-05-15T15:55:45.154Z,73.50
2023-05-15T15:58:16.085Z,73.60
2023-05-15T16:00:45.128Z,73.70
2023-05-15T16:03:14.170Z,73.80
2023-05-15T16:05:43.193Z,73.70
2023-05-15T16:08:12.200Z,73.70
2023-05-15T16:10:41.195Z,73.80
2023-05-15T16:13:11.526Z,74.00
2023-05-15T16:15:40.707Z,73.90
2023-05-15T16:18:09.711Z,74.00
2023-05-15T16:20:38.708Z,74.00
2023-05-15T16:23:10.722Z,73.90
2023-05-15T16:25:39.854Z,74.00
2023-05-15T16:28:09.983Z,74.10
2023-05-15T16:30:48.207Z,74.30
2023-05-15T16:33:19.793Z,74.60
2023-05-15T16:35:49.228Z,74.70
2023-05-15T16:38:19.288Z,74.80
2023-05-15T16:40:48.722Z,74.70
2023-05-15T16:43:18.208Z,74.70
2023-05-15T16:45:47.476Z,74.90
2023-05-15T16:48:16.825Z,75.10
2023-05-15T16:50:45.955Z,75.10
2023-05-15T16:53:16.134Z,75.20
2023-05-15T16:55:45.364Z,75.40
2023-05-15T16:58:14.543Z,75.50
2023-05-15T17:00:43.513Z,75.40
2023-05-15T17:03:14.008Z,75.50
2023-05-15T17:05:43.043Z,75.70
2023-05-15T17:08:12.634Z,75.80
2023-05-15T17:10:42.264Z,76.00
2023-05-15T17:13:11.298Z,76.10
2023-05-15T17:15:40.317Z,76.20
2023-05-15T17:18:09.494Z,76.50
2023-05-15T17:20:38.488Z,76.60
2023-05-15T17:23:07.531Z,76.60
2023-05-15T17:25:36.627Z,76.70
2023-05-15T17:28:05.637Z,76.70
2023-05-15T17:30:34.663Z,76.80
2023-05-15T17:33:03.810Z,76.80
2023-05-15T17:35:33.362Z,76.90
2023-05-15T17:38:02.825Z,76.90
2023-05-15T17:40:31.789Z,76.90
2023-05-15T17:43:00.765Z,76.70
2023-05-15T17:45:29.737Z,76.90
2023-05-15T17:48:04.649Z,76.80
2023-05-15T17:50:36.030Z,76.90
2023-05-15T17:53:07.194Z,76.80
2023-05-15T17:55:36.689Z,76.90
2023-05-15T17:58:05.854Z,76.90
2023-05-15T18:00:34.950Z,77.00
2023-05-15T18:03:04.046Z,77.00
2023-05-15T18:05:33.256Z,77.30
2023-05-15T18:08:04.682Z,77.30
2023-05-15T18:10:33.823Z,77.30
2023-05-15T18:13:02.816Z,77.40
2023-05-15T18:15:36.391Z,77.60
2023-05-15T18:18:05.870Z,78.30
2023-05-15T18:20:34.994Z,78.30
2023-05-15T18:23:03.967Z,78.20
2023-05-15T18:25:37.871Z,78.10
2023-05-15T18:28:07.060Z,78.00
2023-05-15T18:30:36.810Z,78.20
2023-05-15T18:33:06.025Z,78.20
2023-05-15T18:35:35.037Z,78.30
2023-05-15T18:38:04.174Z,78.30
2023-05-15T18:40:33.469Z,78.40
2023-05-15T18:43:02.574Z,78.50
2023-05-15T18:45:31.730Z,78.40
2023-05-15T18:48:00.865Z,78.30
2023-05-15T18:50:29.869Z,78.50
2023-05-15T18:52:58.960Z,78.80
2023-05-15T18:55:31.097Z,79.00
2023-05-15T18:58:00.097Z,79.10
2023-05-15T19:00:37.857Z,79.10
2023-05-15T19:03:10.139Z,79.00
2023-05-15T19:05:39.245Z,79.00
2023-05-15T19:08:08.397Z,79.20
2023-05-15T19:10:37.353Z,79.10
2023-05-15T19:13:06.388Z,79.10
2023-05-15T19:15:35.370Z,79.20
2023-05-15T19:18:04.418Z,79.50
2023-05-15T19:20:33.461Z,79.70
2023-05-15T19:23:02.685Z,79.50
2023-05-15T19:25:32.299Z,79.60
2023-05-15T19:28:01.334Z,79.70
2023-05-15T19:30:30.379Z,79.60
2023-05-15T19:32:59.363Z,79.80
2023-05-15T19:35:28.418Z,80.00
2023-05-15T19:37:57.584Z,80.10
2023-05-15T19:40:26.834Z,80.50
2023-05-15T19:42:56.035Z,81.20
2023-05-15T19:45:25.313Z,80.50
2023-05-15T19:47:54.510Z,80.30
2023-05-15T19:50:23.663Z,80.60
2023-05-15T19:52:52.674Z,80.60
2023-05-15T19:55:21.657Z,80.60
2023-05-15T19:57:50.802Z,80.70
2023-05-15T20:00:20.159Z,81.20
2023-05-15T20:02:50.200Z,81.30
2023-05-15T20:05:19.360Z,81.00
2023-05-15T20:07:48.828Z,80.90
2023-05-15T20:10:19.701Z,80.90
2023-05-15T20:12:49.051Z,81.10
2023-05-15T20:15:18.352Z,81.10
2023-05-15T20:17:47.818Z,81.20
2023-05-15T20:20:17.875Z,81.40
2023-05-15T20:22:47.186Z,81.40
2023-05-15T20:25:19.276Z,81.40
2023-05-15T20:27:48.288Z,81.40
2023-05-15T20:30:17.624Z,81.70
2023-05-15T20:32:47.555Z,81.80
2023-05-15T20:35:17.148Z,82.70
2023-05-15T20:37:46.685Z,81.80
2023-05-15T20:40:17.285Z,81.80
2023-05-15T20:42:46.328Z,81.80
2023-05-15T20:45:15.814Z,81.90
2023-05-15T20:47:45.029Z,81.90
2023-05-15T20:50:14.248Z,82.00
2023-05-15T20:52:43.290Z,82.00
2023-05-15T20:55:21.330Z,82.30
2023-05-15T20:57:51.911Z,82.30
2023-05-15T21:00:21.449Z,82.30
2023-05-15T21:02:50.745Z,82.50
2023-05-15T21:05:20.099Z,82.40
2023-05-15T21:07:49.201Z,82.40
2023-05-15T21:10:18.332Z,82.30
2023-05-15T21:12:47.278Z,82.30
2023-05-15T21:15:16.361Z,82.40
2023-05-15T21:17:45.347Z,82.50
2023-05-15T21:20:14.553Z,82.60
2023-05-15T21:22:43.662Z,82.70
2023-05-15T21:25:13.503Z,82.80
2023-05-15T21:27:43.244Z,82.90
2023-05-15T21:30:12.798Z,83.00
2023-05-15T21:32:41.962Z,83.10
2023-05-15T21:35:11.446Z,83.10
2023-05-15T21:37:40.442Z,83.20
2023-05-15T21:40:10.241Z,83.30
2023-05-15T21:42:39.250Z,83.30
2023-05-15T21:45:08.952Z,83.50
2023-05-15T21:47:37.994Z,83.50
2023-05-15T21:50:08.221Z,83.50
2023-05-15T21:52:37.254Z,83.60
2023-05-15T21:55:06.660Z,83.60
2023-05-15T21:57:35.757Z,83.70
2023-05-15T22:00:05.726Z,83.80
2023-05-15T22:02:34.892Z,84.10
2023-05-15T22:05:05.043Z,84.10
2023-05-15T22:07:33.985Z,84.20
2023-05-15T22:10:04.684Z,84.20
2023-05-15T22:12:36.977Z,84.10
2023-05-15T22:15:06.565Z,84.10
2023-05-15T22:17:37.295Z,84.20
2023-05-15T22:20:12.613Z,84.40
2023-05-15T22:22:44.222Z,84.50
2023-05-15T22:25:13.363Z,84.60
2023-05-15T22:27:42.909Z,84.60
2023-05-15T22:30:12.258Z,84.60
2023-05-15T22:32:42.474Z,84.70
2023-05-15T22:35:12.887Z,84.70
2023-05-15T22:37:43.288Z,84.80
2023-05-15T22:40:13.250Z,84.90
2023-05-15T22:42:42.422Z,84.90
2023-05-15T22:45:11.920Z,84.90
2023-05-15T22:47:41.240Z,85.20
2023-05-15T22:50:10.868Z,85.20
2023-05-15T22:52:40.198Z,85.40
2023-05-15T22:55:23.748Z,85.70
2023-05-15T22:57:52.688Z,86.30
2023-05-15T23:00:21.998Z,86.00
2023-05-15T23:02:51.120Z,86.00
2023-05-15T23:05:20.336Z,85.80
2023-05-15T23:08:29.107Z,85.70
2023-05-15T23:10:58.070Z,85.60
2023-05-15T23:13:28.149Z,86.10
2023-05-15T23:15:57.244Z,85.90
2023-05-15T23:18:26.852Z,86.00
2023-05-15T23:20:55.840Z,86.10
2023-05-15T23:23:24.843Z,86.00
2023-05-15T23:25:53.795Z,86.00
2023-05-15T23:28:22.937Z,85.90
2023-05-15T23:30:55.007Z,86.00
2023-05-15T23:33:24.953Z,85.90
2023-05-15T23:35:54.072Z,85.70
2023-05-15T23:38:24.665Z,85.80
2023-05-15T23:40:54.448Z,86.00
2023-05-15T23:43:23.550Z,85.70
2023-05-15T23:45:52.524Z,85.80
2023-05-15T23:48:21.567Z,85.80
2023-05-15T23:50:50.648Z,85.70
2023-05-15T23:53:19.586Z,85.80
2023-05-15T23:55:48.938Z,85.40
2023-05-15T23:58:18.033Z,85.10
